createdAt,value
2022-09-27T00:00:01.350Z,986.18
2022-09-27T00:01:01.510Z,986.20
2022-09-27T00:02:01.722Z,986.25
2022-09-27T00:03:02.006Z,986.26
2022-09-27T00:04:02.598Z,986.25
2022-09-27T00:05:03.244Z,986.29
2022-09-27T00:06:02.351Z,986.26
2022-09-27T00:07:02.499Z,986.28
2022-09-27T00:08:02.651Z,986.28
2022-09-27T00:09:02.807Z,986.42
2022-09-27T00:10:03.124Z,986.40
2022-09-27T00:11:04.104Z,986.36
2022-09-27T00:12:04.102Z,986.46
2022-09-27T00:13:03.477Z,986.41
2022-09-27T00:14:03.606Z,986.48
2022-09-27T00:15:03.751Z,986.43
2022-09-27T00:16:04.021Z,986.44
2022-09-27T00:17:04.616Z,986.44
2022-09-27T00:18:04.619Z,986.53
2022-09-27T00:19:05.133Z,986.51
2022-09-27T00:20:05.603Z,986.46
2022-09-27T00:21:04.866Z,986.57
2022-09-27T00:22:05.012Z,986.56
2022-09-27T00:23:05.159Z,986.58
2022-09-27T00:24:05.273Z,986.61
2022-09-27T00:25:05.426Z,986.69
2022-09-27T00:26:05.616Z,986.73
2022-09-27T00:27:05.771Z,986.65
2022-09-27T00:28:05.922Z,986.77
2022-09-27T00:29:06.089Z,986.74
2022-09-27T00:30:07.104Z,986.76
2022-09-27T00:31:06.657Z,986.71
2022-09-27T00:32:06.466Z,986.68
2022-09-27T00:33:07.607Z,986.68
2022-09-27T00:34:06.826Z,986.73
2022-09-27T00:35:06.981Z,986.66
2022-09-27T00:36:07.609Z,986.68
2022-09-27T00:37:07.368Z,986.72
2022-09-27T00:38:07.488Z,986.70
2022-09-27T00:39:07.631Z,986.70
2022-09-27T00:40:07.792Z,986.77
2022-09-27T00:41:08.005Z,986.75
2022-09-27T00:42:08.125Z,986.72
2022-09-27T00:43:08.291Z,986.69
2022-09-27T00:44:08.648Z,986.66
2022-09-27T00:45:08.693Z,986.69
2022-09-27T00:46:08.962Z,986.69
2022-09-27T00:47:09.030Z,986.70
2022-09-27T00:48:09.192Z,986.80
2022-09-27T00:49:09.374Z,986.76
2022-09-27T00:50:09.502Z,986.81
2022-09-27T00:51:09.661Z,986.75
2022-09-27T00:52:10.124Z,986.84
2022-09-27T00:53:10.018Z,986.86
2022-09-27T00:54:10.158Z,986.80
2022-09-27T00:55:11.116Z,986.83
2022-09-27T00:56:10.472Z,986.79
2022-09-27T00:57:10.638Z,986.81
2022-09-27T00:58:11.610Z,986.79
2022-09-27T00:59:11.005Z,986.81
2022-09-27T01:00:11.180Z,986.82
2022-09-27T01:01:11.348Z,986.90
2022-09-27T01:02:11.611Z,986.82
2022-09-27T01:03:11.647Z,986.91
2022-09-27T01:04:12.611Z,986.90
2022-09-27T01:05:11.992Z,986.86
2022-09-27T01:06:12.144Z,986.87
2022-09-27T01:07:12.249Z,987.01
2022-09-27T01:08:12.479Z,986.99
2022-09-27T01:09:12.833Z,987.09
2022-09-27T01:10:12.903Z,987.07
2022-09-27T01:11:13.614Z,987.13
2022-09-27T01:12:13.234Z,987.12
2022-09-27T01:13:13.364Z,987.17
2022-09-27T01:14:13.495Z,987.21
2022-09-27T01:15:13.669Z,987.19
2022-09-27T01:16:14.661Z,987.20
2022-09-27T01:17:13.945Z,987.19
2022-09-27T01:18:14.131Z,987.19
2022-09-27T01:19:14.352Z,987.20
2022-09-27T01:20:14.437Z,987.29
2022-09-27T01:21:14.569Z,987.30
2022-09-27T01:22:14.698Z,987.24
2022-09-27T01:23:14.868Z,987.23
2022-09-27T01:24:15.004Z,987.29
2022-09-27T01:25:15.157Z,987.28
2022-09-27T01:26:15.292Z,987.30
2022-09-27T01:27:15.436Z,987.31
2022-09-27T01:28:15.637Z,987.28
2022-09-27T01:29:15.868Z,987.29
2022-09-27T01:30:16.621Z,987.30
2022-09-27T01:31:16.202Z,987.31
2022-09-27T01:32:16.307Z,987.37
2022-09-27T01:33:16.482Z,987.32
2022-09-27T01:34:16.638Z,987.31
2022-09-27T01:35:16.792Z,987.25
2022-09-27T01:36:16.953Z,987.24
2022-09-27T01:37:17.112Z,987.27
2022-09-27T01:38:17.250Z,987.30
2022-09-27T01:39:18.396Z,987.28
2022-09-27T01:40:17.684Z,987.28
2022-09-27T01:41:17.774Z,987.25
2022-09-27T01:42:22.050Z,987.31
2022-09-27T01:43:19.620Z,987.29
2022-09-27T01:44:18.200Z,987.31
2022-09-27T01:45:18.340Z,987.30
2022-09-27T01:46:18.540Z,987.36
2022-09-27T01:47:19.627Z,987.34
2022-09-27T01:48:18.875Z,987.34
2022-09-27T01:49:19.624Z,987.30
2022-09-27T01:50:19.303Z,987.32
2022-09-27T01:51:20.135Z,987.30
2022-09-27T01:52:19.615Z,987.33
2022-09-27T01:53:19.759Z,987.27
2022-09-27T01:54:19.891Z,987.35
2022-09-27T01:55:20.135Z,987.39
2022-09-27T01:56:21.128Z,987.35
2022-09-27T01:57:21.125Z,987.34
2022-09-27T01:58:21.123Z,987.40
2022-09-27T01:59:20.654Z,987.40
2022-09-27T02:00:21.634Z,987.38
2022-09-27T02:01:21.036Z,987.41
2022-09-27T02:02:21.308Z,987.30
2022-09-27T02:03:21.415Z,987.39
2022-09-27T02:04:21.565Z,987.33
2022-09-27T02:05:21.746Z,987.30
2022-09-27T02:06:21.888Z,987.42
2022-09-27T02:07:22.036Z,987.40
2022-09-27T02:08:22.169Z,987.34
2022-09-27T02:09:22.315Z,987.39
2022-09-27T02:10:22.480Z,987.39
2022-09-27T02:11:23.633Z,987.42
2022-09-27T02:12:22.872Z,987.38
2022-09-27T02:13:23.032Z,987.47
2022-09-27T02:14:23.153Z,987.40
2022-09-27T02:15:23.271Z,987.47
2022-09-27T02:16:23.478Z,987.45
2022-09-27T02:17:23.568Z,987.41
2022-09-27T02:18:23.749Z,987.48
2022-09-27T02:19:23.871Z,987.43
2022-09-27T02:20:24.027Z,987.47
2022-09-27T02:21:25.138Z,987.40
2022-09-27T02:22:24.642Z,987.42
2022-09-27T02:23:24.539Z,987.40
2022-09-27T02:24:24.725Z,987.48
2022-09-27T02:25:24.886Z,987.52
2022-09-27T02:26:25.036Z,987.41
2022-09-27T02:27:25.157Z,987.44
2022-09-27T02:28:25.312Z,987.46
2022-09-27T02:29:25.434Z,987.53
2022-09-27T02:30:25.576Z,987.49
2022-09-27T02:31:26.711Z,987.51
2022-09-27T02:32:25.861Z,987.52
2022-09-27T02:33:26.144Z,987.48
2022-09-27T02:34:26.116Z,987.53
2022-09-27T02:35:26.370Z,987.56
2022-09-27T02:36:26.503Z,987.52
2022-09-27T02:37:27.140Z,987.50
2022-09-27T02:38:26.756Z,987.55
2022-09-27T02:39:26.883Z,987.56
2022-09-27T02:40:27.084Z,987.48
2022-09-27T02:41:27.272Z,987.56
2022-09-27T02:42:27.403Z,987.53
2022-09-27T02:43:28.141Z,987.52
2022-09-27T02:44:28.638Z,987.58
2022-09-27T02:45:28.644Z,987.54
2022-09-27T02:46:28.223Z,987.58
2022-09-27T02:47:28.281Z,987.59
2022-09-27T02:48:28.414Z,987.50
2022-09-27T02:49:28.610Z,987.55
2022-09-27T02:50:29.643Z,987.61
2022-09-27T02:51:28.920Z,987.53
2022-09-27T02:52:29.100Z,987.55
2022-09-27T02:53:29.253Z,987.56
2022-09-27T02:54:29.411Z,987.55
2022-09-27T02:55:29.566Z,987.57
2022-09-27T02:56:29.749Z,987.55
2022-09-27T02:57:29.952Z,987.60
2022-09-27T02:58:30.127Z,987.58
2022-09-27T02:59:30.290Z,987.55
2022-09-27T03:00:30.459Z,987.58
2022-09-27T03:01:31.734Z,987.49
2022-09-27T03:02:30.989Z,987.57
2022-09-27T03:03:30.974Z,987.57
2022-09-27T03:04:32.166Z,987.56
2022-09-27T03:05:31.305Z,987.61
2022-09-27T03:06:31.481Z,987.59
2022-09-27T03:07:32.689Z,987.54
2022-09-27T03:08:31.854Z,987.56
2022-09-27T03:09:32.650Z,987.58
2022-09-27T03:10:32.206Z,987.59
2022-09-27T03:11:32.383Z,987.60
2022-09-27T03:12:32.566Z,987.58
2022-09-27T03:13:32.853Z,987.64
2022-09-27T03:14:32.877Z,987.66
2022-09-27T03:15:33.641Z,987.66
2022-09-27T03:16:34.233Z,987.66
2022-09-27T03:17:34.147Z,987.68
2022-09-27T03:18:33.547Z,987.67
2022-09-27T03:19:33.693Z,987.66
2022-09-27T03:20:34.648Z,987.69
2022-09-27T03:21:34.651Z,987.65
2022-09-27T03:22:34.160Z,987.75
2022-09-27T03:23:34.329Z,987.76
2022-09-27T03:24:34.488Z,987.63
2022-09-27T03:25:34.658Z,987.65
2022-09-27T03:26:34.828Z,987.67
2022-09-27T03:27:34.991Z,987.67
2022-09-27T03:28:35.158Z,987.70
2022-09-27T03:29:35.325Z,987.75
2022-09-27T03:30:35.676Z,987.75
2022-09-27T03:31:35.619Z,987.77
2022-09-27T03:32:35.810Z,987.85
2022-09-27T03:33:35.960Z,987.83
2022-09-27T03:34:36.648Z,987.91
2022-09-27T03:35:36.311Z,987.83
2022-09-27T03:36:36.466Z,987.87
2022-09-27T03:38:10.007Z,987.88
2022-09-27T03:38:37.689Z,987.84
2022-09-27T03:39:36.939Z,987.84
2022-09-27T03:40:37.157Z,987.92
2022-09-27T03:41:37.261Z,987.91
2022-09-27T03:42:37.376Z,987.90
2022-09-27T03:43:37.526Z,987.90
2022-09-27T03:44:37.678Z,987.94
2022-09-27T03:45:37.820Z,987.93
2022-09-27T03:46:38.279Z,987.94
2022-09-27T03:47:38.128Z,987.87
2022-09-27T03:48:38.253Z,987.88
2022-09-27T03:49:38.375Z,987.88
2022-09-27T03:50:38.539Z,987.89
2022-09-27T03:51:38.686Z,987.88
2022-09-27T03:52:38.841Z,987.89
2022-09-27T03:53:38.968Z,987.88
2022-09-27T03:54:39.103Z,987.94
2022-09-27T03:55:39.271Z,987.88
2022-09-27T03:56:39.398Z,987.90
2022-09-27T03:57:40.197Z,987.93
2022-09-27T03:58:39.672Z,987.88
2022-09-27T03:59:39.821Z,987.96
2022-09-27T04:00:40.701Z,987.94
2022-09-27T04:01:40.216Z,987.97
2022-09-27T04:02:40.434Z,987.98
2022-09-27T04:03:40.514Z,987.98
2022-09-27T04:04:40.642Z,987.98
2022-09-27T04:05:41.708Z,987.99
2022-09-27T04:06:40.947Z,988.03
2022-09-27T04:07:41.213Z,988.02
2022-09-27T04:08:41.212Z,987.99
2022-09-27T04:09:44.725Z,987.93
2022-09-27T04:10:42.491Z,988.03
2022-09-27T04:11:41.631Z,987.95
2022-09-27T04:12:41.779Z,988.03
2022-09-27T04:13:41.917Z,987.95
2022-09-27T04:14:42.061Z,987.99
2022-09-27T04:15:42.216Z,988.00
2022-09-27T04:16:42.414Z,988.03
2022-09-27T04:17:42.519Z,987.98
2022-09-27T04:18:42.694Z,988.02
2022-09-27T04:19:42.861Z,988.05
2022-09-27T04:20:43.704Z,988.05
2022-09-27T04:21:43.714Z,988.02
2022-09-27T04:22:43.356Z,988.03
2022-09-27T04:23:43.560Z,988.08
2022-09-27T04:24:44.212Z,988.07
2022-09-27T04:25:44.215Z,988.03
2022-09-27T04:26:44.699Z,988.01
2022-09-27T04:27:44.214Z,988.08
2022-09-27T04:28:45.206Z,988.02
2022-09-27T04:29:44.590Z,988.05
2022-09-27T04:30:44.816Z,988.03
2022-09-27T04:31:45.706Z,988.06
2022-09-27T04:32:45.087Z,988.10
2022-09-27T04:33:45.221Z,988.08
2022-09-27T04:34:46.170Z,988.08
2022-09-27T04:35:46.650Z,988.16
2022-09-27T04:36:45.821Z,988.08
2022-09-27T04:37:46.021Z,988.18
2022-09-27T04:38:46.188Z,988.12
2022-09-27T04:39:47.206Z,988.14
2022-09-27T04:40:47.260Z,988.12
2022-09-27T04:41:46.715Z,988.12
2022-09-27T04:42:46.889Z,988.17
2022-09-27T04:43:47.065Z,988.19
2022-09-27T04:44:48.203Z,988.18
2022-09-27T04:45:47.537Z,988.18
2022-09-27T04:46:47.660Z,988.20
2022-09-27T04:47:48.238Z,988.21
2022-09-27T04:48:48.016Z,988.23
2022-09-27T04:49:48.708Z,988.23
2022-09-27T04:50:48.392Z,988.23
2022-09-27T04:51:48.559Z,988.30
2022-09-27T04:52:48.773Z,988.28
2022-09-27T04:53:48.944Z,988.26
2022-09-27T04:54:49.098Z,988.34
2022-09-27T04:55:49.269Z,988.36
2022-09-27T04:56:49.427Z,988.32
2022-09-27T04:57:49.606Z,988.33
2022-09-27T04:58:49.775Z,988.30
2022-09-27T04:59:49.912Z,988.39
2022-09-27T05:00:50.070Z,988.38
2022-09-27T05:01:50.248Z,988.41
2022-09-27T05:02:51.227Z,988.41
2022-09-27T05:03:50.627Z,988.43
2022-09-27T05:04:50.774Z,988.47
2022-09-27T05:05:51.226Z,988.46
2022-09-27T05:06:56.292Z,988.47
2022-09-27T05:07:53.226Z,988.48
2022-09-27T05:08:51.731Z,988.44
2022-09-27T05:09:51.657Z,988.46
2022-09-27T05:10:51.857Z,988.49
2022-09-27T05:11:52.718Z,988.47
2022-09-27T05:12:52.261Z,988.50
2022-09-27T05:13:52.732Z,988.52
2022-09-27T05:14:52.660Z,988.52
2022-09-27T05:15:52.836Z,988.55
2022-09-27T05:16:53.045Z,988.51
2022-09-27T05:17:53.212Z,988.49
2022-09-27T05:18:53.390Z,988.52
2022-09-27T05:19:53.550Z,988.56
2022-09-27T05:20:54.223Z,988.61
2022-09-27T05:21:54.228Z,988.56
2022-09-27T05:22:54.033Z,988.58
2022-09-27T05:23:54.724Z,988.65
2022-09-27T05:24:54.378Z,988.57
2022-09-27T05:25:54.524Z,988.58
2022-09-27T05:26:54.663Z,988.56
2022-09-27T05:27:54.854Z,988.58
2022-09-27T05:28:55.031Z,988.64
2022-09-27T05:29:55.198Z,988.64
2022-09-27T05:30:55.384Z,988.60
2022-09-27T05:31:55.555Z,988.64
2022-09-27T05:32:55.722Z,988.78
2022-09-27T05:33:56.834Z,988.66
2022-09-27T05:34:56.718Z,988.70
2022-09-27T05:35:56.738Z,988.67
2022-09-27T05:36:56.351Z,988.69
2022-09-27T05:37:56.593Z,988.68
2022-09-27T05:38:56.715Z,988.73
2022-09-27T05:39:56.886Z,988.74
2022-09-27T05:40:57.060Z,988.67
2022-09-27T05:41:57.742Z,988.74
2022-09-27T05:42:58.226Z,988.76
2022-09-27T05:43:57.573Z,988.77
2022-09-27T05:44:57.735Z,988.78
2022-09-27T05:45:58.269Z,988.76
2022-09-27T05:46:58.027Z,988.82
2022-09-27T05:47:58.720Z,988.82
2022-09-27T05:48:58.344Z,988.83
2022-09-27T05:49:59.232Z,988.83
2022-09-27T05:50:58.733Z,988.86
2022-09-27T05:51:58.876Z,988.84
2022-09-27T05:52:59.007Z,988.84
2022-09-27T05:53:59.115Z,988.83
2022-09-27T05:55:00.229Z,988.82
2022-09-27T05:56:00.222Z,988.81
2022-09-27T05:56:59.695Z,988.84
2022-09-27T05:58:00.733Z,988.83
2022-09-27T05:58:59.948Z,988.91
2022-09-27T06:00:00.153Z,988.85
2022-09-27T06:01:00.394Z,988.84
2022-09-27T06:02:01.317Z,988.87
2022-09-27T06:03:00.754Z,988.85
2022-09-27T06:04:00.866Z,988.89
2022-09-27T06:05:00.993Z,988.86
2022-09-27T06:06:01.223Z,988.83
2022-09-27T06:07:02.231Z,988.85
2022-09-27T06:08:01.603Z,988.81
2022-09-27T06:09:01.817Z,988.84
2022-09-27T06:10:02.723Z,988.85
2022-09-27T06:11:02.077Z,988.81
2022-09-27T06:12:02.253Z,988.87
2022-09-27T06:13:02.399Z,988.91
2022-09-27T06:14:02.559Z,988.87
2022-09-27T06:15:02.671Z,988.95
2022-09-27T06:16:02.850Z,988.86
2022-09-27T06:17:03.925Z,988.97
2022-09-27T06:18:03.108Z,988.86
2022-09-27T06:19:03.298Z,988.94
2022-09-27T06:20:03.452Z,988.86
2022-09-27T06:21:03.744Z,988.91
2022-09-27T06:22:03.773Z,988.90
2022-09-27T06:23:04.728Z,988.90
2022-09-27T06:24:04.729Z,988.88
2022-09-27T06:25:04.223Z,988.97
2022-09-27T06:26:04.401Z,988.98
2022-09-27T06:27:04.569Z,988.97
2022-09-27T06:28:04.736Z,988.91
2022-09-27T06:29:05.240Z,988.87
2022-09-27T06:30:05.151Z,988.90
2022-09-27T06:31:05.371Z,988.98
2022-09-27T06:32:05.465Z,988.93
2022-09-27T06:33:05.616Z,989.01
2022-09-27T06:34:05.755Z,988.95
2022-09-27T06:35:05.895Z,988.92
2022-09-27T06:36:06.121Z,988.94
2022-09-27T06:37:06.268Z,988.96
2022-09-27T06:38:06.425Z,988.92
2022-09-27T06:39:06.571Z,988.95
2022-09-27T06:40:07.252Z,988.98
2022-09-27T06:41:06.882Z,988.95
2022-09-27T06:42:07.772Z,988.97
2022-09-27T06:43:07.162Z,988.94
2022-09-27T06:44:07.336Z,988.91
2022-09-27T06:45:07.488Z,988.91
2022-09-27T06:46:07.736Z,988.84
2022-09-27T06:47:07.825Z,988.97
2022-09-27T06:48:08.733Z,988.93
2022-09-27T06:49:08.111Z,988.79
2022-09-27T06:50:08.263Z,988.76
2022-09-27T06:51:08.431Z,988.50
2022-09-27T06:52:08.752Z,988.47
2022-09-27T06:53:08.785Z,988.49
2022-09-27T06:54:08.937Z,988.44
2022-09-27T06:55:09.123Z,988.61
2022-09-27T06:56:09.259Z,988.60
2022-09-27T06:57:09.428Z,988.56
2022-09-27T06:58:09.581Z,988.54
2022-09-27T06:59:09.838Z,988.54
2022-09-27T07:00:09.953Z,988.50
2022-09-27T07:01:10.278Z,988.49
2022-09-27T07:02:10.392Z,988.42
2022-09-27T07:03:10.484Z,988.36
2022-09-27T07:04:10.654Z,988.10
2022-09-27T07:05:10.803Z,987.67
2022-09-27T07:06:10.982Z,986.90
2022-09-27T07:07:11.204Z,986.17
2022-09-27T07:08:11.366Z,985.69
2022-09-27T07:09:11.607Z,984.90
2022-09-27T07:10:11.665Z,985.31
2022-09-27T07:11:11.843Z,985.26
2022-09-27T07:12:12.761Z,984.80
2022-09-27T07:13:12.177Z,984.24
2022-09-27T07:14:12.366Z,984.17
2022-09-27T07:15:12.558Z,984.66
2022-09-27T07:16:12.774Z,984.89
2022-09-27T07:17:13.765Z,985.27
2022-09-27T07:18:13.743Z,985.57
2022-09-27T07:19:13.273Z,985.81
2022-09-27T07:20:13.416Z,985.99
2022-09-27T07:21:14.253Z,986.23
2022-09-27T07:22:13.812Z,986.42
2022-09-27T07:23:13.958Z,986.66
2022-09-27T07:24:14.098Z,986.77
2022-09-27T07:25:14.774Z,986.87
2022-09-27T07:26:14.405Z,987.01
2022-09-27T07:27:14.761Z,987.07
2022-09-27T07:28:18.471Z,987.13
2022-09-27T07:29:16.982Z,987.16
2022-09-27T07:30:16.178Z,987.22
2022-09-27T07:31:15.796Z,987.38
2022-09-27T07:32:15.547Z,987.48
2022-09-27T07:33:15.679Z,987.55
2022-09-27T07:34:16.772Z,987.64
2022-09-27T07:35:16.016Z,987.82
2022-09-27T07:36:16.168Z,987.95
2022-09-27T07:37:16.318Z,987.96
2022-09-27T07:38:17.247Z,988.08
2022-09-27T07:39:17.372Z,988.22
2022-09-27T07:40:17.292Z,988.29
2022-09-27T07:41:16.963Z,988.34
2022-09-27T07:42:17.261Z,988.42
2022-09-27T07:43:17.252Z,988.46
2022-09-27T07:44:18.254Z,988.55
2022-09-27T07:45:17.501Z,988.52
2022-09-27T07:46:18.270Z,988.61
2022-09-27T07:47:17.818Z,988.69
2022-09-27T07:48:18.749Z,988.78
2022-09-27T07:49:18.142Z,988.74
2022-09-27T07:50:19.251Z,988.84
2022-09-27T07:51:19.249Z,988.80
2022-09-27T07:52:18.648Z,988.93
2022-09-27T07:53:18.793Z,988.93
2022-09-27T07:54:18.949Z,988.97
2022-09-27T07:55:19.087Z,989.01
2022-09-27T07:56:19.801Z,989.05
2022-09-27T07:57:19.427Z,989.14
2022-09-27T07:58:19.579Z,989.23
2022-09-27T07:59:19.750Z,989.15
2022-09-27T08:00:19.897Z,989.24
2022-09-27T08:01:20.164Z,989.29
2022-09-27T08:02:20.234Z,989.30
2022-09-27T08:03:21.257Z,989.35
2022-09-27T08:04:21.486Z,989.34
2022-09-27T08:05:20.613Z,989.38
2022-09-27T08:06:20.760Z,989.43
2022-09-27T08:07:21.917Z,989.43
2022-09-27T08:08:21.753Z,989.35
2022-09-27T08:09:21.237Z,989.35
2022-09-27T08:10:22.255Z,989.38
2022-09-27T08:11:21.629Z,989.41
2022-09-27T08:12:22.256Z,989.41
2022-09-27T08:13:21.976Z,989.46
2022-09-27T08:14:22.210Z,989.44
2022-09-27T08:15:22.322Z,989.49
2022-09-27T08:16:22.561Z,989.47
2022-09-27T08:17:22.615Z,989.48
2022-09-27T08:18:24.278Z,989.39
2022-09-27T08:19:23.769Z,989.46
2022-09-27T08:20:23.008Z,989.52
2022-09-27T08:21:23.139Z,989.45
2022-09-27T08:22:23.259Z,989.53
2022-09-27T08:23:23.398Z,989.59
2022-09-27T08:24:23.504Z,989.56
2022-09-27T08:25:24.347Z,989.60
2022-09-27T08:26:23.843Z,989.55
2022-09-27T08:27:23.961Z,989.60
2022-09-27T08:28:24.223Z,989.57
2022-09-27T08:29:24.346Z,989.58
2022-09-27T08:30:25.260Z,989.60
2022-09-27T08:31:25.326Z,989.62
2022-09-27T08:32:24.741Z,989.59
2022-09-27T08:33:28.621Z,989.63
2022-09-27T08:34:26.768Z,989.58
2022-09-27T08:35:25.360Z,989.59
2022-09-27T08:36:25.615Z,989.61
2022-09-27T08:37:25.840Z,989.65
2022-09-27T08:38:26.091Z,989.58
2022-09-27T08:39:26.208Z,989.61
2022-09-27T08:40:26.336Z,989.66
2022-09-27T08:41:27.261Z,989.63
2022-09-27T08:42:26.631Z,989.65
2022-09-27T08:43:27.274Z,989.66
2022-09-27T08:44:27.764Z,989.62
2022-09-27T08:45:27.189Z,989.65
2022-09-27T08:46:27.367Z,989.67
2022-09-27T08:47:28.270Z,989.71
2022-09-27T08:48:27.762Z,989.71
2022-09-27T08:49:27.930Z,989.67
2022-09-27T08:50:28.140Z,989.63
2022-09-27T08:51:28.292Z,989.70
2022-09-27T08:52:28.428Z,989.69
2022-09-27T08:53:28.556Z,989.63
2022-09-27T08:54:28.692Z,989.62
2022-09-27T08:55:28.837Z,989.70
2022-09-27T08:56:29.280Z,989.69
2022-09-27T08:57:29.782Z,989.75
2022-09-27T08:58:29.275Z,989.76
2022-09-27T08:59:29.399Z,989.72
2022-09-27T09:00:29.650Z,989.80
2022-09-27T09:01:29.820Z,989.65
2022-09-27T09:02:30.027Z,989.74
2022-09-27T09:03:30.769Z,989.76
2022-09-27T09:04:31.272Z,989.73
2022-09-27T09:05:30.616Z,989.69
2022-09-27T09:06:30.759Z,989.74
2022-09-27T09:07:30.866Z,989.78
2022-09-27T09:08:31.000Z,989.76
2022-09-27T09:09:31.772Z,989.83
2022-09-27T09:10:31.289Z,989.72
2022-09-27T09:11:31.428Z,989.75
2022-09-27T09:12:31.599Z,989.68
2022-09-27T09:13:31.737Z,989.73
2022-09-27T09:14:31.899Z,989.76
2022-09-27T09:15:32.781Z,989.69
2022-09-27T09:16:32.320Z,989.73
2022-09-27T09:17:32.477Z,989.68
2022-09-27T09:18:33.201Z,989.64
2022-09-27T09:19:32.759Z,989.64
2022-09-27T09:20:33.789Z,989.59
2022-09-27T09:21:33.133Z,989.67
2022-09-27T09:22:33.261Z,989.68
2022-09-27T09:23:34.285Z,989.65
2022-09-27T09:24:33.649Z,989.60
2022-09-27T09:25:33.781Z,989.72
2022-09-27T09:26:33.923Z,989.70
2022-09-27T09:27:34.779Z,989.76
2022-09-27T09:28:34.303Z,989.69
2022-09-27T09:29:34.492Z,989.74
2022-09-27T09:30:34.659Z,989.72
2022-09-27T09:31:34.863Z,989.70
2022-09-27T09:32:35.073Z,989.72
2022-09-27T09:33:35.239Z,989.72
2022-09-27T09:34:35.442Z,989.69
2022-09-27T09:35:35.568Z,989.60
2022-09-27T09:36:36.282Z,989.60
2022-09-27T09:37:35.929Z,989.60
2022-09-27T09:38:36.095Z,989.56
2022-09-27T09:39:36.277Z,989.60
2022-09-27T09:40:36.473Z,989.54
2022-09-27T09:41:37.277Z,989.46
2022-09-27T09:42:37.280Z,989.51
2022-09-27T09:43:36.970Z,989.46
2022-09-27T09:44:37.782Z,989.45
2022-09-27T09:45:37.333Z,989.45
2022-09-27T09:46:41.103Z,989.33
2022-09-27T09:47:38.675Z,989.30
2022-09-27T09:48:37.817Z,989.28
2022-09-27T09:49:37.984Z,989.14
2022-09-27T09:50:38.181Z,989.12
2022-09-27T09:51:38.387Z,989.14
2022-09-27T09:52:38.543Z,989.09
2022-09-27T09:53:38.720Z,989.12
2022-09-27T09:54:38.883Z,989.13
2022-09-27T09:55:39.057Z,989.17
2022-09-27T09:56:39.245Z,989.21
2022-09-27T09:57:39.423Z,989.16
2022-09-27T09:58:39.592Z,989.22
2022-09-27T09:59:40.334Z,989.15
2022-09-27T10:00:40.180Z,989.27
2022-09-27T10:01:40.204Z,989.17
2022-09-27T10:02:40.399Z,989.19
2022-09-27T10:03:40.585Z,989.15
2022-09-27T10:04:40.771Z,989.07
2022-09-27T10:05:41.789Z,989.15
2022-09-27T10:06:41.073Z,989.12
2022-09-27T10:07:41.220Z,989.10
2022-09-27T10:08:41.392Z,989.08
2022-09-27T10:09:42.284Z,989.03
2022-09-27T10:10:41.673Z,989.01
2022-09-27T10:11:41.829Z,989.09
2022-09-27T10:12:41.980Z,989.09
2022-09-27T10:13:42.150Z,989.03
2022-09-27T10:14:42.799Z,989.07
2022-09-27T10:15:43.287Z,989.09
2022-09-27T10:16:43.303Z,989.05
2022-09-27T10:17:43.793Z,989.09
2022-09-27T10:18:47.656Z,989.03
2022-09-27T10:19:45.330Z,989.04
2022-09-27T10:20:44.298Z,988.97
2022-09-27T10:21:43.547Z,989.04
2022-09-27T10:22:43.705Z,989.09
2022-09-27T10:23:43.870Z,989.04
2022-09-27T10:24:44.034Z,989.03
2022-09-27T10:25:44.217Z,988.99
2022-09-27T10:26:44.332Z,989.01
2022-09-27T10:27:44.573Z,989.06
2022-09-27T10:28:45.288Z,989.04
2022-09-27T10:29:45.793Z,989.04
2022-09-27T10:30:45.306Z,989.08
2022-09-27T10:31:45.279Z,989.05
2022-09-27T10:32:45.330Z,989.05
2022-09-27T10:33:47.299Z,989.02
2022-09-27T10:34:45.650Z,988.96
2022-09-27T10:35:45.816Z,989.01
2022-09-27T10:36:45.951Z,989.03
2022-09-27T10:37:46.069Z,988.92
2022-09-27T10:38:46.208Z,988.93
2022-09-27T10:39:48.313Z,988.86
2022-09-27T10:40:46.873Z,988.89
2022-09-27T10:41:47.306Z,988.89
2022-09-27T10:42:46.815Z,988.94
2022-09-27T10:43:46.968Z,988.88
2022-09-27T10:44:47.810Z,988.85
2022-09-27T10:45:48.383Z,988.87
2022-09-27T10:46:47.519Z,988.78
2022-09-27T10:47:47.659Z,988.69
2022-09-27T10:48:49.293Z,988.66
2022-09-27T10:49:47.933Z,988.62
2022-09-27T10:50:50.880Z,988.53
2022-09-27T10:51:49.797Z,988.47
2022-09-27T10:52:48.418Z,988.48
2022-09-27T10:53:48.584Z,988.39
2022-09-27T10:54:48.760Z,988.42
2022-09-27T10:55:48.922Z,988.33
2022-09-27T10:56:49.075Z,988.34
2022-09-27T10:57:49.270Z,988.24
2022-09-27T10:58:49.480Z,988.21
2022-09-27T10:59:49.639Z,988.27
2022-09-27T11:00:50.330Z,988.25
2022-09-27T11:01:50.016Z,988.19
2022-09-27T11:02:50.193Z,988.20
2022-09-27T11:03:50.353Z,988.20
2022-09-27T11:04:50.576Z,988.20
2022-09-27T11:05:50.647Z,988.24
2022-09-27T11:06:50.833Z,988.22
2022-09-27T11:07:51.003Z,988.25
2022-09-27T11:08:51.172Z,988.24
2022-09-27T11:09:52.301Z,988.25
2022-09-27T11:10:52.301Z,988.33
2022-09-27T11:11:51.690Z,988.31
2022-09-27T11:12:52.840Z,988.45
2022-09-27T11:13:51.958Z,988.52
2022-09-27T11:14:52.801Z,988.53
2022-09-27T11:15:52.336Z,988.53
2022-09-27T11:16:52.482Z,988.60
2022-09-27T11:17:52.642Z,988.60
2022-09-27T11:18:52.804Z,988.61
2022-09-27T11:19:53.810Z,988.62
2022-09-27T11:20:53.334Z,988.69
2022-09-27T11:21:53.364Z,988.67
2022-09-27T11:22:54.305Z,988.67
2022-09-27T11:23:53.724Z,988.66
2022-09-27T11:24:53.905Z,988.65
2022-09-27T11:25:54.066Z,988.59
2022-09-27T11:26:54.216Z,988.54
2022-09-27T11:27:54.378Z,988.52
2022-09-27T11:28:54.590Z,988.42
2022-09-27T11:29:54.822Z,988.42
2022-09-27T11:30:54.859Z,988.40
2022-09-27T11:31:55.096Z,988.43
2022-09-27T11:32:55.181Z,988.30
2022-09-27T11:33:55.311Z,988.34
2022-09-27T11:34:55.440Z,988.20
2022-09-27T11:35:55.582Z,988.20
2022-09-27T11:36:55.829Z,988.23
2022-09-27T11:37:55.976Z,988.25
2022-09-27T11:38:59.304Z,988.22
2022-09-27T11:39:58.352Z,988.23
2022-09-27T11:40:56.681Z,988.23
2022-09-27T11:41:57.312Z,988.20
2022-09-27T11:42:56.926Z,988.19
2022-09-27T11:43:57.064Z,988.19
2022-09-27T11:45:19.762Z,988.16
2022-09-27T11:46:19.241Z,988.12
2022-09-27T11:46:59.931Z,988.11
2022-09-27T11:47:57.956Z,988.08
2022-09-27T11:48:57.950Z,988.13
2022-09-27T11:49:59.835Z,988.13
2022-09-27T11:50:59.032Z,988.09
2022-09-27T11:51:58.437Z,988.15
2022-09-27T11:52:58.636Z,988.12
2022-09-27T11:53:58.779Z,988.11
2022-09-27T11:54:58.940Z,988.11
2022-09-27T11:55:59.090Z,988.22
2022-09-27T11:56:59.268Z,988.22
2022-09-27T11:57:59.446Z,988.30
2022-09-27T11:59:00.386Z,988.29
2022-09-27T11:59:59.829Z,988.28
2022-09-27T12:00:59.992Z,988.34
2022-09-27T12:02:00.208Z,988.40
2022-09-27T12:03:00.308Z,988.34
2022-09-27T12:04:00.420Z,988.31
2022-09-27T12:05:00.828Z,988.28
2022-09-27T12:06:06.328Z,988.09
2022-09-27T12:07:02.933Z,987.92
2022-09-27T12:08:01.818Z,987.71
2022-09-27T12:09:01.340Z,987.65
2022-09-27T12:10:02.318Z,987.64
2022-09-27T12:11:01.686Z,987.64
2022-09-27T12:12:01.841Z,987.64
2022-09-27T12:13:02.014Z,987.66
2022-09-27T12:14:02.339Z,987.59
2022-09-27T12:15:06.613Z,987.67
2022-09-27T12:16:03.639Z,987.67
2022-09-27T12:17:02.782Z,987.69
2022-09-27T12:18:02.950Z,987.74
2022-09-27T12:19:03.132Z,987.73
2022-09-27T12:20:03.320Z,987.78
2022-09-27T12:21:03.469Z,987.75
2022-09-27T12:22:04.323Z,987.74
2022-09-27T12:23:04.326Z,987.71
2022-09-27T12:24:03.951Z,987.79
2022-09-27T12:25:04.123Z,987.90
2022-09-27T12:26:04.279Z,987.86
2022-09-27T12:27:04.414Z,987.89
2022-09-27T12:28:04.564Z,987.94
2022-09-27T12:29:04.738Z,987.83
2022-09-27T12:30:04.861Z,987.91